Detroit, Michigan
Traffic Map
Current Weather Conditions
Detroit, Michigan
Broken Clouds
Broken Clouds
73°
Feels Like: 73°
Wind Chill: 73° Ceiling: 27000
Heat Index: 73° Visibility: 15mi
Dew Point: 70° Wind: 2mph
Humidity: 88% Direction: ° ()
Pressure: 29.98in Gusts: 0mph
Raw Report DataCYQG 030200Z VRB02KT 15SM FEW095 BKN270 23/21 A2998 RMK AC2CI4 SLP148 DENSITY ALT 1600FT
Traffic Incident Summary
Active as of:
Severity:
Category:
InformationThere was an issue retrieving the traffic information for this location. Please try a different location or try again shortly.
Advertisements
Track Severe Weather on mobile